createdAt,value
2023-02-18T00:00:44.342Z,3.03
2023-02-18T00:01:45.935Z,3.47
2023-02-18T00:02:47.652Z,2.88
2023-02-18T00:03:49.854Z,3.20
2023-02-18T00:04:54.275Z,2.97
2023-02-18T00:05:56.101Z,3.03
2023-02-18T00:06:57.647Z,3.10
2023-02-18T00:07:59.141Z,2.95
2023-02-18T00:09:02.715Z,3.10
2023-02-18T00:10:07.716Z,2.90
2023-02-18T00:11:09.657Z,2.92
2023-02-18T00:12:11.834Z,3.25
2023-02-18T00:13:13.336Z,3.22
2023-02-18T00:14:16.340Z,3.30
2023-02-18T00:15:17.817Z,3.15
2023-02-18T00:16:20.054Z,2.92
2023-02-18T00:17:21.584Z,3.03
2023-02-18T00:18:23.008Z,3.22
2023-02-18T00:19:24.512Z,2.92
2023-02-18T00:20:26.518Z,3.13
2023-02-18T00:21:28.501Z,3.10
2023-02-18T00:22:30.010Z,2.90
2023-02-18T00:23:31.896Z,3.05
2023-02-18T00:24:33.332Z,3.10
2023-02-18T00:25:34.876Z,3.00
2023-02-18T00:26:36.422Z,3.20
2023-02-18T00:27:37.860Z,3.33
2023-02-18T00:28:39.768Z,3.15
2023-02-18T00:29:41.214Z,3.25
2023-02-18T00:30:43.694Z,3.17
2023-02-18T00:31:45.740Z,3.22
2023-02-18T00:32:47.344Z,3.00
2023-02-18T00:33:48.921Z,3.50
2023-02-18T00:34:50.401Z,3.08
2023-02-18T00:35:51.924Z,3.33
2023-02-18T00:36:53.364Z,2.95
2023-02-18T00:37:54.850Z,3.10
2023-02-18T00:39:01.659Z,2.90
2023-02-18T00:40:03.940Z,3.08
2023-02-18T00:41:06.786Z,2.90
2023-02-18T00:42:08.286Z,3.00
2023-02-18T00:43:10.357Z,3.15
2023-02-18T00:44:12.885Z,3.17
2023-02-18T00:45:14.546Z,2.95
2023-02-18T00:46:16.565Z,2.83
2023-02-18T00:47:18.006Z,3.35
2023-02-18T00:48:19.849Z,3.20
2023-02-18T00:49:21.339Z,3.20
2023-02-18T00:50:23.149Z,3.20
2023-02-18T00:51:25.490Z,3.40
2023-02-18T00:52:26.992Z,3.42
2023-02-18T00:53:29.469Z,3.20
2023-02-18T00:54:31.227Z,3.25
2023-02-18T00:55:32.907Z,3.30
2023-02-18T00:56:34.417Z,3.28
2023-02-18T00:57:36.163Z,3.33
2023-02-18T00:58:38.331Z,3.50
2023-02-18T00:59:39.814Z,3.35
2023-02-18T01:00:41.645Z,3.33
2023-02-18T01:01:43.239Z,3.38
2023-02-18T01:02:44.730Z,3.20
2023-02-18T01:03:46.598Z,3.15
2023-02-18T01:04:48.334Z,3.60
2023-02-18T01:05:50.421Z,3.40
2023-02-18T01:06:52.478Z,3.42
2023-02-18T01:07:53.934Z,3.50
2023-02-18T01:08:55.442Z,3.45
2023-02-18T01:09:56.882Z,3.45
2023-02-18T01:10:59.618Z,3.53
2023-02-18T01:12:01.092Z,3.92
2023-02-18T01:13:04.367Z,3.47
2023-02-18T01:14:05.952Z,3.35
2023-02-18T01:15:08.049Z,3.45
2023-02-18T01:16:11.026Z,3.55
2023-02-18T01:17:12.724Z,3.65
2023-02-18T01:18:14.738Z,3.53
2023-02-18T01:19:16.211Z,3.55
2023-02-18T01:20:17.992Z,3.47
2023-02-18T01:21:19.661Z,3.50
2023-02-18T01:22:21.155Z,3.45
2023-02-18T01:23:23.218Z,3.28
2023-02-18T01:24:24.746Z,3.30
2023-02-18T01:25:26.298Z,3.03
2023-02-18T01:26:27.774Z,2.90
2023-02-18T01:27:29.443Z,2.90
2023-02-18T01:28:31.074Z,3.05
2023-02-18T01:29:32.599Z,2.90
2023-02-18T01:30:34.673Z,3.00
2023-02-18T01:31:36.247Z,2.80
2023-02-18T01:32:37.958Z,3.13
2023-02-18T01:33:39.864Z,2.70
2023-02-18T01:34:41.407Z,3.00
2023-02-18T01:35:42.979Z,2.70
2023-02-18T01:36:44.585Z,2.58
2023-02-18T01:37:48.082Z,2.40
2023-02-18T01:38:49.758Z,2.67
2023-02-18T01:39:51.216Z,2.30
2023-02-18T01:40:53.360Z,2.20
2023-02-18T01:41:54.846Z,2.40
2023-02-18T01:42:56.836Z,2.50
2023-02-18T01:44:25.267Z,2.40
2023-02-18T01:45:37.242Z,2.65
2023-02-18T01:46:38.730Z,2.67
2023-02-18T01:47:40.204Z,2.58
2023-02-18T01:48:58.466Z,2.20
2023-02-18T01:50:00.170Z,2.42
2023-02-18T01:51:19.676Z,2.33
2023-02-18T01:52:26.057Z,2.30
2023-02-18T01:53:35.054Z,2.03
2023-02-18T01:54:40.685Z,2.47
2023-02-18T01:55:42.406Z,2.33
2023-02-18T01:56:54.494Z,2.13
2023-02-18T01:57:56.245Z,2.40
2023-02-18T01:59:01.727Z,2.33
2023-02-18T02:00:12.814Z,2.28
2023-02-18T02:01:14.426Z,2.35
2023-02-18T02:02:20.416Z,2.40
2023-02-18T02:03:22.120Z,2.40
2023-02-18T02:04:24.642Z,2.10
2023-02-18T02:05:31.706Z,2.30
2023-02-18T02:06:33.631Z,2.30
2023-02-18T02:07:35.427Z,2.42
2023-02-18T02:08:37.006Z,2.25
2023-02-18T02:09:41.119Z,2.35
2023-02-18T02:11:00.160Z,2.38
2023-02-18T02:12:17.958Z,2.30
2023-02-18T02:13:40.387Z,2.15
2023-02-18T02:14:44.920Z,2.22
2023-02-18T02:15:57.812Z,2.20
2023-02-18T02:17:17.647Z,2.10
2023-02-18T02:18:44.098Z,2.22
2023-02-18T02:20:00.508Z,2.10
2023-02-18T02:21:04.896Z,2.58
2023-02-18T02:22:31.200Z,2.20
2023-02-18T02:23:41.972Z,2.20
2023-02-18T02:25:05.225Z,2.30
2023-02-18T02:26:28.758Z,2.35
2023-02-18T02:28:06.021Z,2.35
2023-02-18T02:29:39.604Z,2.33
2023-02-18T02:30:47.073Z,2.30
2023-02-18T02:32:06.479Z,2.53
2023-02-18T02:33:38.887Z,2.10
2023-02-18T02:34:47.921Z,2.63
2023-02-18T02:36:56.347Z,2.40
2023-02-18T02:38:03.229Z,2.50
2023-02-18T02:39:13.817Z,2.53
2023-02-18T02:40:33.611Z,2.25
2023-02-18T02:42:06.135Z,2.40
2023-02-18T02:43:42.516Z,2.38
2023-02-18T02:44:43.996Z,2.42
2023-02-18T02:45:55.175Z,2.58
2023-02-18T02:47:07.656Z,2.38
2023-02-18T02:48:18.099Z,2.58
2023-02-18T02:49:27.354Z,2.50
2023-02-18T02:50:39.874Z,2.38
2023-02-18T02:51:49.755Z,2.20
2023-02-18T02:52:57.591Z,2.50
2023-02-18T02:54:21.721Z,2.67
2023-02-18T02:55:23.706Z,2.63
2023-02-18T02:56:25.621Z,2.50
2023-02-18T02:57:27.049Z,2.50
2023-02-18T02:58:28.533Z,2.45
2023-02-18T02:59:30.853Z,2.60
2023-02-18T03:00:32.306Z,2.30
2023-02-18T03:01:41.875Z,2.63
2023-02-18T03:02:49.360Z,2.75
2023-02-18T03:04:18.104Z,2.47
2023-02-18T03:05:22.475Z,2.38
2023-02-18T03:06:42.066Z,2.30
2023-02-18T03:08:08.830Z,2.40
2023-02-18T03:09:47.587Z,2.55
2023-02-18T03:11:03.910Z,2.33
2023-02-18T03:12:23.739Z,1.83
2023-02-18T03:13:54.371Z,2.55
2023-02-18T03:15:08.363Z,2.33
2023-02-18T03:16:53.197Z,2.58
2023-02-18T03:18:11.321Z,2.30
2023-02-18T03:19:18.495Z,2.05
2023-02-18T03:20:32.430Z,2.38
2023-02-18T03:21:45.309Z,2.28
2023-02-18T03:22:49.393Z,2.22
2023-02-18T03:24:02.050Z,2.08
2023-02-18T03:25:05.090Z,2.22
2023-02-18T03:26:09.266Z,2.45
2023-02-18T03:27:18.792Z,1.95
2023-02-18T03:28:22.809Z,2.30
2023-02-18T03:29:25.978Z,2.20
2023-02-18T03:30:32.820Z,2.08
2023-02-18T03:31:38.866Z,2.47
2023-02-18T03:32:40.600Z,1.90
2023-02-18T03:33:50.067Z,2.30
2023-02-18T03:34:56.658Z,2.60
2023-02-18T03:35:58.246Z,2.25
2023-02-18T03:37:01.226Z,1.90
2023-02-18T03:39:14.164Z,1.90
2023-02-18T03:40:18.944Z,2.20
2023-02-18T03:41:20.614Z,1.95
2023-02-18T03:42:27.720Z,1.95
2023-02-18T03:43:29.418Z,2.10
2023-02-18T03:44:32.152Z,1.92
2023-02-18T03:45:33.764Z,2.10
2023-02-18T03:46:38.090Z,1.83
2023-02-18T03:47:39.634Z,1.60
2023-02-18T03:48:41.117Z,1.73
2023-02-18T03:49:42.669Z,1.90
2023-02-18T03:50:44.109Z,1.88
2023-02-18T03:51:45.639Z,1.90
2023-02-18T03:52:47.149Z,1.83
2023-02-18T03:53:48.762Z,1.88
2023-02-18T03:54:50.997Z,1.60
2023-02-18T03:55:52.426Z,1.75
2023-02-18T03:56:53.869Z,1.90
2023-02-18T03:57:55.288Z,2.10
2023-02-18T03:58:56.852Z,2.28
2023-02-18T03:59:58.354Z,2.10
2023-02-18T04:00:59.851Z,2.00
2023-02-18T04:02:01.381Z,2.10
2023-02-18T04:03:02.915Z,1.73
2023-02-18T04:04:04.582Z,2.22
2023-02-18T04:05:07.094Z,1.80
2023-02-18T04:06:09.287Z,1.90
2023-02-18T04:07:10.917Z,1.83
2023-02-18T04:08:12.354Z,2.00
2023-02-18T04:09:13.843Z,1.80
2023-02-18T04:10:15.349Z,2.00
2023-02-18T04:11:16.951Z,1.80
2023-02-18T04:12:18.487Z,1.77
2023-02-18T04:13:20.083Z,1.88
2023-02-18T04:14:21.528Z,2.00
2023-02-18T04:15:23.020Z,1.80
2023-02-18T04:16:24.558Z,1.83
2023-02-18T04:17:26.359Z,1.73
2023-02-18T04:18:27.838Z,1.88
2023-02-18T04:19:29.248Z,1.83
2023-02-18T04:20:31.390Z,1.90
2023-02-18T04:21:33.931Z,1.90
2023-02-18T04:22:35.410Z,2.17
2023-02-18T04:23:36.856Z,1.70
2023-02-18T04:24:38.325Z,1.70
2023-02-18T04:25:40.000Z,1.80
2023-02-18T04:26:41.920Z,1.80
2023-02-18T04:27:43.397Z,1.88
2023-02-18T04:28:45.171Z,1.85
2023-02-18T04:29:46.625Z,2.10
2023-02-18T04:30:48.265Z,1.90
2023-02-18T04:31:49.815Z,1.90
2023-02-18T04:32:51.285Z,2.15
2023-02-18T04:33:52.716Z,2.00
2023-02-18T04:34:54.161Z,2.20
2023-02-18T04:35:55.628Z,2.00
2023-02-18T04:36:57.442Z,2.00
2023-02-18T04:37:58.926Z,1.80
2023-02-18T04:39:00.430Z,1.90
2023-02-18T04:40:02.421Z,2.08
2023-02-18T04:41:04.000Z,2.10
2023-02-18T04:42:08.972Z,2.00
2023-02-18T04:43:10.466Z,2.10
2023-02-18T04:44:11.976Z,2.38
2023-02-18T04:45:13.833Z,2.20
2023-02-18T04:46:15.390Z,2.00
2023-02-18T04:47:16.873Z,2.20
2023-02-18T04:48:18.379Z,2.10
2023-02-18T04:49:19.871Z,2.33
2023-02-18T04:50:22.122Z,2.03
2023-02-18T04:51:23.760Z,2.20
2023-02-18T04:52:25.483Z,2.28
2023-02-18T04:53:27.006Z,2.03
2023-02-18T04:54:28.737Z,2.22
2023-02-18T04:55:30.270Z,2.10
2023-02-18T04:56:31.707Z,2.05
2023-02-18T04:57:33.295Z,2.03
2023-02-18T04:58:34.771Z,2.45
2023-02-18T04:59:36.724Z,1.98
2023-02-18T05:00:38.149Z,1.92
2023-02-18T05:01:39.687Z,2.05
2023-02-18T05:02:41.200Z,2.05
2023-02-18T05:03:42.649Z,2.17
2023-02-18T05:04:44.555Z,2.10
2023-02-18T05:05:46.026Z,2.30
2023-02-18T05:06:47.577Z,2.30
2023-02-18T05:07:49.021Z,2.30
2023-02-18T05:08:50.533Z,2.13
2023-02-18T05:09:52.066Z,2.10
2023-02-18T05:10:53.517Z,2.30
2023-02-18T05:11:54.990Z,2.10
2023-02-18T05:12:56.467Z,2.38
2023-02-18T05:13:58.313Z,2.22
2023-02-18T05:14:59.773Z,2.20
2023-02-18T05:16:01.566Z,2.40
2023-02-18T05:17:03.318Z,2.72
2023-02-18T05:18:05.006Z,2.17
2023-02-18T05:19:07.163Z,2.30
2023-02-18T05:20:10.031Z,2.50
2023-02-18T05:22:13.672Z,2.53
2023-02-18T05:23:15.170Z,2.72
2023-02-18T05:24:16.650Z,2.72
2023-02-18T05:25:18.218Z,2.35
2023-02-18T05:26:19.709Z,2.58
2023-02-18T05:27:21.139Z,2.45
2023-02-18T05:28:22.807Z,2.50
2023-02-18T05:29:24.334Z,2.67
2023-02-18T05:30:25.819Z,2.75
2023-02-18T05:31:27.366Z,2.60
2023-02-18T05:32:28.909Z,2.80
2023-02-18T05:33:30.775Z,2.88
2023-02-18T05:34:32.254Z,2.97
2023-02-18T05:35:33.705Z,3.00
2023-02-18T05:36:35.192Z,2.67
2023-02-18T05:37:36.635Z,2.72
2023-02-18T05:38:38.412Z,2.83
2023-02-18T05:39:41.010Z,2.97
2023-02-18T05:40:42.421Z,2.92
2023-02-18T05:41:43.878Z,2.80
2023-02-18T05:42:45.297Z,2.80
2023-02-18T05:44:05.658Z,2.90
2023-02-18T05:45:07.516Z,3.00
2023-02-18T05:46:09.308Z,2.85
2023-02-18T05:47:12.457Z,2.67
2023-02-18T05:49:15.693Z,2.80
2023-02-18T05:50:17.567Z,2.83
2023-02-18T05:51:19.059Z,2.83
2023-02-18T05:52:22.042Z,3.30
2023-02-18T05:55:26.929Z,2.65
2023-02-18T05:56:28.388Z,3.05
2023-02-18T05:57:29.860Z,2.90
2023-02-18T05:58:31.274Z,2.95
2023-02-18T05:59:33.090Z,3.05
2023-02-18T06:00:34.635Z,3.80
2023-02-18T06:01:36.183Z,3.67
2023-02-18T06:02:38.140Z,3.67
2023-02-18T06:03:39.634Z,3.00
2023-02-18T06:04:41.092Z,3.05
2023-02-18T06:05:42.549Z,3.05
2023-02-18T06:06:44.328Z,3.60
2023-02-18T06:07:45.832Z,3.00
2023-02-18T06:08:47.609Z,2.80
2023-02-18T06:09:49.068Z,2.78
2023-02-18T06:10:50.575Z,3.03
2023-02-18T06:11:52.262Z,3.20
2023-02-18T06:12:53.697Z,3.00
2023-02-18T06:13:55.213Z,3.05
2023-02-18T06:14:56.717Z,3.08
2023-02-18T06:15:58.253Z,3.30
2023-02-18T06:16:59.842Z,3.00
2023-02-18T06:18:01.371Z,3.28
2023-02-18T06:19:03.596Z,3.08
2023-02-18T06:20:05.634Z,3.20
2023-02-18T06:21:07.297Z,3.17
2023-02-18T06:22:08.785Z,3.33
2023-02-18T06:23:11.650Z,3.17
2023-02-18T06:25:15.051Z,3.30
2023-02-18T06:26:16.606Z,3.40
2023-02-18T06:27:18.057Z,3.13
2023-02-18T06:28:19.873Z,3.30
2023-02-18T06:29:21.385Z,3.78
2023-02-18T06:30:24.323Z,3.42
2023-02-18T06:31:26.201Z,3.22
2023-02-18T06:32:27.873Z,3.60
2023-02-18T06:33:29.873Z,3.83
2023-02-18T06:34:31.331Z,3.42
2023-02-18T06:35:33.305Z,3.75
2023-02-18T06:36:34.799Z,3.58
2023-02-18T06:37:36.277Z,3.97
2023-02-18T06:38:42.971Z,3.50
2023-02-18T06:39:44.415Z,3.90
2023-02-18T06:40:47.409Z,4.07
2023-02-18T06:42:50.205Z,3.92
2023-02-18T06:43:51.641Z,3.80
2023-02-18T06:44:53.185Z,4.28
2023-02-18T06:45:54.657Z,3.72
2023-02-18T06:46:56.215Z,3.97
2023-02-18T06:47:57.718Z,4.00
2023-02-18T06:48:59.151Z,4.18
2023-02-18T06:50:00.773Z,3.47
2023-02-18T06:51:02.415Z,3.90
2023-02-18T06:52:04.062Z,4.38
2023-02-18T06:53:05.631Z,3.92
2023-02-18T06:54:07.150Z,4.40
2023-02-18T06:55:09.536Z,4.10
2023-02-18T06:56:11.690Z,4.05
2023-02-18T06:57:13.102Z,4.20
2023-02-18T06:58:15.051Z,4.57
2023-02-18T06:59:16.600Z,4.30
2023-02-18T07:00:18.629Z,4.15
2023-02-18T07:01:20.133Z,4.72
2023-02-18T07:02:21.629Z,4.55
2023-02-18T07:03:23.123Z,4.10
2023-02-18T07:04:24.662Z,4.40
2023-02-18T07:05:26.160Z,4.53
2023-02-18T07:06:27.599Z,4.68
2023-02-18T07:07:29.180Z,4.80
2023-02-18T07:08:33.018Z,4.28
2023-02-18T07:09:34.450Z,4.20
2023-02-18T07:10:35.963Z,4.20
2023-02-18T07:11:37.411Z,4.55
2023-02-18T07:12:38.904Z,4.43
2023-02-18T07:13:40.366Z,4.45
2023-02-18T07:14:41.859Z,4.47
2023-02-18T07:15:43.463Z,4.70
2023-02-18T07:16:45.035Z,4.50
2023-02-18T07:17:46.594Z,4.93
2023-02-18T07:18:48.059Z,4.60
2023-02-18T07:19:49.502Z,4.97
2023-02-18T07:20:51.998Z,4.82
2023-02-18T07:21:57.488Z,5.28
2023-02-18T07:22:59.246Z,5.20
2023-02-18T07:24:00.696Z,5.50
2023-02-18T07:25:02.397Z,5.55
2023-02-18T07:26:06.406Z,5.20
2023-02-18T07:27:08.092Z,4.90
2023-02-18T07:28:09.555Z,5.03
2023-02-18T07:29:11.248Z,5.25
2023-02-18T07:30:13.465Z,5.22
2023-02-18T07:31:15.734Z,5.18
2023-02-18T07:32:19.037Z,5.63
2023-02-18T07:33:20.471Z,4.75
2023-02-18T07:34:21.989Z,5.60
2023-02-18T07:35:23.488Z,5.22
2023-02-18T07:36:24.949Z,5.43
2023-02-18T07:37:26.543Z,5.43
2023-02-18T07:38:28.703Z,5.57
2023-02-18T07:39:30.181Z,5.45
2023-02-18T07:40:31.664Z,5.50
2023-02-18T07:41:33.241Z,5.47
2023-02-18T07:42:34.669Z,6.05
2023-02-18T07:43:36.078Z,5.75
2023-02-18T07:44:38.308Z,5.25
2023-02-18T07:45:39.954Z,6.18
2023-02-18T07:46:42.354Z,5.85
2023-02-18T07:47:45.449Z,5.40
2023-02-18T07:48:47.092Z,5.82
2023-02-18T07:49:48.651Z,6.22
2023-02-18T07:50:50.099Z,6.07
2023-02-18T07:51:52.025Z,6.22
2023-02-18T07:52:53.471Z,6.28
2023-02-18T07:53:55.042Z,6.00
2023-02-18T07:54:56.535Z,6.38
2023-02-18T07:56:01.375Z,6.47
2023-02-18T07:57:02.906Z,6.05
2023-02-18T07:58:04.692Z,6.32
2023-02-18T07:59:06.480Z,6.25
2023-02-18T08:00:08.517Z,6.57
2023-02-18T08:01:12.244Z,6.40
2023-02-18T08:02:24.940Z,6.28
2023-02-18T08:03:30.408Z,6.72
2023-02-18T08:04:31.972Z,6.15
2023-02-18T08:05:33.522Z,6.35
2023-02-18T08:06:37.448Z,6.68
2023-02-18T08:07:40.318Z,6.28
2023-02-18T08:08:41.748Z,6.55
2023-02-18T08:09:43.833Z,6.35
2023-02-18T08:10:45.276Z,6.40
2023-02-18T08:11:46.790Z,6.43
2023-02-18T08:12:48.550Z,6.28
2023-02-18T08:13:50.140Z,6.43
2023-02-18T08:14:51.562Z,6.50
2023-02-18T08:15:56.272Z,6.47
2023-02-18T08:16:57.705Z,6.25
2023-02-18T08:17:59.978Z,6.10
2023-02-18T08:19:03.860Z,6.35
2023-02-18T08:20:06.013Z,6.38
2023-02-18T08:21:07.422Z,5.97
2023-02-18T08:22:11.199Z,6.00
2023-02-18T08:23:13.890Z,6.30
2023-02-18T08:24:15.333Z,5.97
2023-02-18T08:25:28.966Z,5.88
2023-02-18T08:26:31.273Z,5.93
2023-02-18T08:27:32.775Z,6.07
2023-02-18T08:28:34.272Z,5.75
2023-02-18T08:29:35.676Z,5.68
2023-02-18T08:30:37.200Z,6.05
2023-02-18T08:31:38.961Z,5.38
2023-02-18T08:32:40.802Z,5.47
2023-02-18T08:33:42.332Z,5.45
2023-02-18T08:34:43.874Z,5.55
2023-02-18T08:35:47.562Z,5.47
2023-02-18T08:36:49.158Z,5.15
2023-02-18T08:37:51.953Z,4.97
2023-02-18T08:38:55.471Z,5.00
2023-02-18T08:39:56.973Z,5.30
2023-02-18T08:41:07.562Z,5.22
2023-02-18T08:42:09.544Z,4.90
2023-02-18T08:43:11.505Z,5.20
2023-02-18T08:44:13.325Z,5.03
2023-02-18T08:45:14.793Z,4.88
2023-02-18T08:46:25.196Z,5.50
2023-02-18T08:48:17.565Z,4.60
2023-02-18T08:48:58.191Z,4.57
2023-02-18T08:49:59.847Z,4.57
2023-02-18T08:51:13.937Z,4.80
2023-02-18T08:52:15.420Z,5.00
2023-02-18T08:53:17.995Z,4.55
2023-02-18T08:54:19.481Z,4.47
2023-02-18T08:55:21.424Z,4.45
2023-02-18T08:56:22.851Z,4.72
2023-02-18T08:57:24.687Z,4.95
2023-02-18T08:58:26.111Z,4.90
2023-02-18T08:59:27.584Z,4.78
2023-02-18T09:00:29.063Z,4.45
2023-02-18T09:01:30.550Z,4.60
2023-02-18T09:02:32.687Z,5.03
2023-02-18T09:03:35.300Z,4.50
2023-02-18T09:04:36.759Z,4.72
2023-02-18T09:05:39.643Z,4.28
2023-02-18T09:08:45.033Z,4.43
2023-02-18T09:09:46.490Z,4.80
2023-02-18T09:10:47.997Z,4.32
2023-02-18T09:11:50.085Z,4.38
2023-02-18T09:12:51.715Z,4.60
2023-02-18T09:13:53.407Z,4.35
2023-02-18T09:14:54.824Z,4.38
2023-02-18T09:16:05.361Z,4.40
2023-02-18T09:17:07.039Z,4.10
2023-02-18T09:18:08.456Z,4.30
2023-02-18T09:19:10.253Z,4.10
2023-02-18T09:20:11.833Z,3.80
2023-02-18T09:21:16.138Z,4.20
2023-02-18T09:22:18.106Z,4.07
2023-02-18T09:23:21.187Z,4.18
2023-02-18T09:24:24.689Z,3.70
2023-02-18T09:25:26.128Z,4.45
2023-02-18T09:26:28.190Z,4.10
2023-02-18T09:27:29.640Z,4.43
2023-02-18T09:28:31.044Z,4.00
2023-02-18T09:29:33.296Z,4.60
2023-02-18T09:30:34.768Z,4.15
2023-02-18T09:31:40.456Z,3.83
2023-02-18T09:32:42.057Z,3.70
2023-02-18T09:33:46.980Z,3.78
2023-02-18T09:34:48.599Z,4.10
2023-02-18T09:35:50.136Z,3.58
2023-02-18T09:36:51.910Z,3.75
2023-02-18T09:37:53.435Z,3.70
2023-02-18T09:38:55.040Z,3.70
2023-02-18T09:39:56.491Z,3.67
2023-02-18T09:41:00.123Z,4.22
2023-02-18T09:42:05.536Z,3.30
2023-02-18T09:43:07.500Z,3.30
2023-02-18T09:44:34.443Z,3.78
2023-02-18T09:45:35.958Z,3.53
2023-02-18T09:46:48.438Z,3.58
2023-02-18T09:47:51.674Z,3.60
2023-02-18T09:48:53.179Z,3.47
2023-02-18T09:49:59.847Z,3.63
2023-02-18T09:51:01.616Z,3.40
2023-02-18T09:52:30.890Z,3.30
2023-02-18T09:53:32.346Z,3.20
2023-02-18T09:54:33.770Z,3.30
2023-02-18T09:55:39.705Z,3.35
2023-02-18T09:56:42.976Z,3.30
2023-02-18T09:57:48.468Z,3.25
2023-02-18T09:58:50.834Z,3.40
2023-02-18T10:00:05.430Z,3.42
2023-02-18T10:01:11.672Z,3.42
2023-02-18T10:02:17.526Z,3.60
2023-02-18T10:03:22.305Z,3.25
2023-02-18T10:04:52.151Z,3.20
2023-02-18T10:06:02.048Z,3.10
2023-02-18T10:07:04.167Z,3.28
2023-02-18T10:08:29.519Z,3.03
2023-02-18T10:09:40.982Z,2.80
2023-02-18T10:10:46.311Z,3.15
2023-02-18T10:11:55.862Z,3.00
2023-02-18T10:12:58.567Z,3.00
2023-02-18T10:14:02.757Z,3.17
2023-02-18T10:15:18.821Z,3.00
2023-02-18T10:16:22.741Z,2.92
2023-02-18T10:17:27.361Z,3.08
2023-02-18T10:18:36.170Z,2.80
2023-02-18T10:19:41.014Z,2.67
2023-02-18T10:20:42.941Z,2.83
2023-02-18T10:21:45.303Z,2.83
2023-02-18T10:22:47.063Z,2.90
2023-02-18T10:24:02.368Z,2.92
2023-02-18T10:25:07.038Z,2.95
2023-02-18T10:26:16.239Z,3.30
2023-02-18T10:27:32.784Z,3.03
2023-02-18T10:28:36.856Z,3.80
2023-02-18T10:29:38.354Z,2.60
2023-02-18T10:30:51.837Z,2.90
2023-02-18T10:32:04.776Z,3.05
2023-02-18T10:33:39.958Z,3.00
2023-02-18T10:35:13.548Z,3.00
2023-02-18T10:38:00.266Z,2.90
2023-02-18T10:39:09.235Z,2.83
2023-02-18T10:40:42.879Z,3.40
2023-02-18T10:42:48.898Z,2.85
2023-02-18T10:44:16.900Z,3.00
2023-02-18T10:45:32.532Z,2.88
2023-02-18T10:47:01.892Z,3.20
2023-02-18T10:48:41.665Z,3.20
2023-02-18T10:50:53.692Z,3.00
2023-02-18T10:51:57.957Z,3.15
2023-02-18T10:53:29.450Z,3.00
2023-02-18T10:54:57.510Z,2.95
2023-02-18T10:55:59.130Z,2.95
2023-02-18T10:57:01.112Z,3.50
2023-02-18T10:58:03.924Z,3.15
2023-02-18T10:59:34.904Z,3.30
2023-02-18T11:00:40.263Z,3.08
2023-02-18T11:01:43.777Z,3.38
2023-02-18T11:02:46.598Z,3.17
2023-02-18T11:03:49.136Z,3.30
2023-02-18T11:04:50.759Z,2.88
2023-02-18T11:05:56.304Z,3.22
2023-02-18T11:07:05.499Z,3.10
2023-02-18T11:08:11.254Z,3.00
2023-02-18T11:09:34.977Z,3.03
2023-02-18T11:10:40.770Z,3.25
2023-02-18T11:11:42.785Z,3.00
2023-02-18T11:12:57.059Z,3.00
2023-02-18T11:14:01.885Z,3.00
2023-02-18T11:15:15.546Z,2.90
2023-02-18T11:16:17.464Z,3.03
2023-02-18T11:17:27.557Z,2.80
2023-02-18T11:18:42.732Z,3.40
2023-02-18T11:21:21.481Z,3.00
2023-02-18T11:22:28.884Z,3.30
2023-02-18T11:23:30.981Z,2.90
2023-02-18T11:24:32.520Z,3.33
2023-02-18T11:25:36.094Z,3.30
2023-02-18T11:26:39.840Z,3.33
2023-02-18T11:27:48.859Z,3.25
2023-02-18T11:30:01.073Z,3.08
2023-02-18T11:31:05.191Z,3.20
2023-02-18T11:32:11.655Z,2.92
2023-02-18T11:33:24.783Z,3.13
2023-02-18T11:34:32.802Z,3.20
2023-02-18T11:35:35.295Z,3.05
2023-02-18T11:36:38.723Z,3.10
2023-02-18T11:37:40.318Z,3.13
2023-02-18T11:38:52.906Z,3.13
2023-02-18T11:39:56.523Z,3.30
2023-02-18T11:41:07.899Z,3.30
2023-02-18T11:42:14.561Z,3.00
2023-02-18T11:43:19.789Z,3.10
2023-02-18T11:44:28.475Z,3.05
2023-02-18T11:45:33.935Z,2.90
2023-02-18T11:46:35.560Z,2.90
2023-02-18T11:47:37.835Z,3.08
2023-02-18T11:48:39.542Z,3.13
2023-02-18T11:49:43.143Z,2.78
2023-02-18T11:50:45.896Z,3.08
2023-02-18T11:51:48.566Z,3.17
2023-02-18T11:52:52.026Z,3.15
2023-02-18T11:54:02.901Z,3.20
2023-02-18T11:55:27.576Z,3.08
2023-02-18T11:56:35.434Z,2.72
2023-02-18T11:57:41.264Z,3.40
2023-02-18T11:58:48.205Z,3.78
2023-02-18T11:59:49.723Z,3.20
2023-02-18T12:00:55.955Z,3.17
2023-02-18T12:02:06.188Z,3.28
2023-02-18T12:03:15.106Z,3.03
2023-02-18T12:04:43.753Z,3.20
2023-02-18T12:05:45.945Z,2.78
2023-02-18T12:07:15.349Z,3.10
2023-02-18T12:08:27.425Z,2.83
2023-02-18T12:09:34.504Z,2.45
2023-02-18T12:10:52.152Z,2.53
2023-02-18T12:12:01.007Z,2.63
2023-02-18T12:13:10.737Z,2.70
2023-02-18T12:14:18.244Z,2.80
2023-02-18T12:15:32.437Z,2.70
2023-02-18T12:16:58.319Z,2.78
2023-02-18T12:18:27.115Z,2.58
2023-02-18T12:19:37.649Z,2.80
2023-02-18T12:20:53.925Z,2.67
2023-02-18T12:21:58.440Z,2.88
2023-02-18T12:23:15.356Z,2.42
2023-02-18T12:24:29.076Z,2.70
2023-02-18T12:25:49.892Z,2.47
2023-02-18T12:27:05.218Z,2.70
2023-02-18T12:28:36.317Z,2.42
2023-02-18T12:30:09.004Z,2.78
2023-02-18T12:31:26.208Z,2.75
2023-02-18T12:32:49.421Z,2.90
2023-02-18T12:34:23.011Z,2.80
2023-02-18T12:36:46.720Z,2.45
2023-02-18T12:38:01.885Z,2.58
2023-02-18T12:40:55.829Z,2.75
2023-02-18T12:41:59.992Z,5.90
2023-02-18T12:43:15.781Z,2.45
2023-02-18T12:44:34.460Z,2.45
2023-02-18T12:46:09.809Z,3.38
2023-02-18T12:47:48.502Z,2.78
2023-02-18T12:49:18.862Z,2.70
2023-02-18T12:50:50.528Z,2.83
2023-02-18T12:52:27.939Z,2.80
2023-02-18T12:53:47.928Z,2.53
2023-02-18T12:55:08.152Z,2.58
2023-02-18T12:56:55.729Z,2.78
2023-02-18T12:58:39.207Z,3.22
2023-02-18T13:00:01.122Z,2.75
2023-02-18T13:01:21.941Z,2.55
2023-02-18T13:02:41.483Z,2.53
2023-02-18T13:03:43.867Z,2.80
2023-02-18T13:05:04.753Z,2.90
2023-02-18T13:06:27.528Z,2.63
2023-02-18T13:07:56.365Z,2.53
2023-02-18T13:09:15.310Z,2.80
2023-02-18T13:10:25.783Z,2.75
2023-02-18T13:11:40.559Z,2.60
2023-02-18T13:12:50.968Z,2.83
2023-02-18T13:13:58.040Z,2.95
2023-02-18T13:15:13.709Z,2.60
2023-02-18T13:16:19.822Z,3.05
2023-02-18T13:17:21.916Z,2.88
2023-02-18T13:18:39.298Z,3.03
2023-02-18T13:19:52.002Z,2.90
2023-02-18T13:21:01.080Z,2.65
2023-02-18T13:23:06.495Z,2.65
2023-02-18T13:24:12.982Z,2.47
2023-02-18T13:25:15.425Z,2.80
2023-02-18T13:26:18.909Z,2.80
2023-02-18T13:27:24.682Z,2.47
2023-02-18T13:28:37.607Z,2.78
2023-02-18T13:29:52.562Z,2.67
2023-02-18T13:31:21.893Z,2.55
2023-02-18T13:32:50.950Z,2.60
2023-02-18T13:34:07.505Z,2.80
2023-02-18T13:35:32.524Z,2.50
2023-02-18T13:36:43.174Z,2.72
2023-02-18T13:37:55.741Z,2.50
2023-02-18T13:39:06.598Z,2.45
2023-02-18T13:40:19.741Z,2.50
2023-02-18T13:41:21.716Z,2.55
2023-02-18T13:42:32.839Z,2.58
2023-02-18T13:43:35.985Z,2.40
2023-02-18T13:45:01.786Z,2.58
2023-02-18T13:46:18.850Z,2.50
2023-02-18T13:47:40.454Z,2.53
2023-02-18T13:48:52.895Z,2.40
2023-02-18T13:49:55.423Z,2.22
2023-02-18T13:51:04.902Z,2.50
2023-02-18T13:52:07.680Z,2.50
2023-02-18T13:53:09.304Z,2.60
2023-02-18T13:54:15.439Z,2.25
2023-02-18T13:55:20.280Z,2.50
2023-02-18T13:56:29.109Z,2.75
2023-02-18T13:57:30.728Z,2.70
2023-02-18T13:58:43.210Z,2.20
2023-02-18T13:59:49.179Z,2.67
2023-02-18T14:00:55.957Z,2.53
2023-02-18T14:02:22.327Z,2.35
2023-02-18T14:03:44.039Z,2.50
2023-02-18T14:04:45.663Z,2.70
2023-02-18T14:05:47.430Z,2.40
2023-02-18T14:07:23.074Z,2.65
2023-02-18T14:08:36.639Z,2.47
2023-02-18T14:09:43.357Z,2.70
2023-02-18T14:11:14.390Z,2.50
2023-02-18T14:12:30.866Z,2.70
2023-02-18T14:14:17.137Z,2.58
2023-02-18T14:15:18.500Z,2.53
2023-02-18T14:16:20.417Z,2.58
2023-02-18T14:17:21.837Z,2.22
2023-02-18T14:18:32.130Z,2.75
2023-02-18T14:19:33.620Z,2.70
2023-02-18T14:20:38.402Z,2.78
2023-02-18T14:21:42.830Z,3.05
2023-02-18T14:22:47.427Z,2.95
2023-02-18T14:23:51.851Z,2.70
2023-02-18T14:25:02.581Z,2.95
2023-02-18T14:26:13.011Z,2.90
2023-02-18T14:27:16.883Z,2.90
2023-02-18T14:28:33.794Z,2.92
2023-02-18T14:29:35.309Z,2.78
2023-02-18T14:30:41.456Z,2.72
2023-02-18T14:31:47.678Z,2.83
2023-02-18T14:32:56.228Z,2.80
2023-02-18T14:34:00.807Z,2.95
2023-02-18T14:35:44.466Z,3.33
2023-02-18T14:36:55.441Z,3.20
2023-02-18T14:38:23.376Z,3.20
2023-02-18T14:39:39.693Z,2.97
2023-02-18T14:41:02.419Z,3.28
2023-02-18T14:42:26.127Z,2.90
2023-02-18T14:43:40.077Z,3.20
2023-02-18T14:45:09.741Z,3.05
2023-02-18T14:46:29.285Z,3.35
2023-02-18T14:47:56.075Z,3.53
2023-02-18T14:49:13.589Z,3.33
2023-02-18T14:50:20.640Z,3.50
2023-02-18T14:51:25.776Z,3.70
2023-02-18T14:52:31.897Z,3.97
2023-02-18T14:53:40.552Z,4.10
2023-02-18T14:54:42.287Z,3.95
2023-02-18T14:55:47.688Z,4.15
2023-02-18T14:56:56.380Z,3.53
2023-02-18T14:58:05.910Z,4.10
2023-02-18T14:59:07.826Z,3.88
2023-02-18T15:00:17.240Z,4.13
2023-02-18T15:01:26.418Z,3.70
2023-02-18T15:02:30.982Z,3.70
2023-02-18T15:03:32.411Z,3.78
2023-02-18T15:04:33.836Z,4.30
2023-02-18T15:05:38.248Z,4.03
2023-02-18T15:06:40.193Z,4.72